Time;durP1;ratioP1;P1;durP2;ratioP2;P2;SDS_P1;SDS_P2;PMS_P1;PMS_P2;Temp;Humidity;BMP_temperature;BMP_pressure;BME280_temperature;BME280_humidity;BME280_pressure;Samples;Min_cycle;Max_cycle;Signal;HPM_P1;HPM_P2
2023/04/15 00:01:59;;;;;;;4.13;3.65;;;;;;;6.78;100.00;100191.03;4974000;28;20066;-80
2023/04/15 00:04:27;;;;;;;4.63;3.80;;;;;;;6.77;100.00;100190.16;4962257;29;20067;-79
2023/04/15 00:06:54;;;;;;;4.25;3.50;;;;;;;6.81;100.00;100193.63;4944479;29;20035;-79
2023/04/15 00:09:21;;;;;;;5.25;4.40;;;;;;;6.82;100.00;100199.69;4957698;28;20035;-80
2023/04/15 00:11:48;;;;;;;6.57;4.40;;;;;;;6.79;100.00;100203.16;4957708;29;20094;-80
2023/04/15 00:14:15;;;;;;;4.13;3.72;;;;;;;6.76;100.00;100192.75;4957095;29;20068;-80
2023/04/15 00:16:41;;;;;;;5.80;3.80;;;;;;;6.71;100.00;100200.56;4957488;29;20450;-80
2023/04/15 00:19:08;;;;;;;4.57;3.90;;;;;;;6.69;100.00;100188.41;4973078;28;20035;-79
2023/04/15 00:21:34;;;;;;;5.72;4.13;;;;;;;6.71;100.00;100189.28;4973056;28;20138;-79
2023/04/15 00:24:02;;;;;;;4.72;4.13;;;;;;;6.68;100.00;100176.31;4973239;28;20118;-79
2023/04/15 00:26:29;;;;;;;4.70;3.78;;;;;;;6.65;100.00;100191.88;4957259;29;20047;-79
2023/04/15 00:28:55;;;;;;;3.97;3.50;;;;;;;6.62;100.00;100180.63;4941494;29;20046;-79
2023/04/15 00:31:22;;;;;;;3.60;3.30;;;;;;;6.60;100.00;100186.72;4956637;29;20098;-79
2023/04/15 00:33:48;;;;;;;6.13;4.43;;;;;;;6.58;100.00;100176.31;4957005;29;20039;-80
2023/04/15 00:36:15;;;;;;;5.53;4.50;;;;;;;6.61;100.00;100176.31;4973235;28;20054;-79
2023/04/15 00:38:41;;;;;;;6.32;3.85;;;;;;;6.66;100.00;100172.81;4956639;29;20390;-80
2023/04/15 00:41:10;;;;;;;6.57;4.50;;;;;;;6.70;100.00;100166.75;4956816;29;20039;-80
2023/04/15 00:43:37;;;;;;;4.30;3.78;;;;;;;6.74;100.00;100171.97;4956882;29;20047;-79
2023/04/15 00:46:05;;;;;;;6.55;3.70;;;;;;;6.78;100.00;100162.41;4940503;29;20138;-80
2023/04/15 00:48:32;;;;;;;5.72;4.60;;;;;;;6.82;100.00;100171.94;4957902;28;20382;-80
2023/04/15 00:50:58;;;;;;;6.13;5.13;;;;;;;6.83;100.00;100157.19;4940539;29;20051;-82
2023/04/15 00:53:25;;;;;;;5.30;3.50;;;;;;;6.80;100.00;100155.47;4940578;29;20427;-80
2023/04/15 00:55:52;;;;;;;8.38;3.92;;;;;;;6.81;100.00;100167.59;4940583;29;20047;-79
2023/04/15 00:58:18;;;;;;;5.07;4.60;;;;;;;6.79;100.00;100161.53;4956613;29;20074;-79
2023/04/15 01:00:45;;;;;;;8.95;4.60;;;;;;;6.80;100.00;100155.47;4956111;28;20059;-81
2023/04/15 01:03:12;;;;;;;5.30;4.32;;;;;;;6.83;100.00;100152.88;4940355;29;20118;-80
2023/04/15 01:05:40;;;;;;;3.92;3.60;;;;;;;6.84;100.00;100154.59;4956333;29;20135;-80
2023/04/15 01:08:06;;;;;;;4.55;4.05;;;;;;;6.85;100.00;100158.94;4956394;29;20098;-80
2023/04/15 01:10:34;;;;;;;7.60;5.30;;;;;;;6.83;100.00;100160.69;4955880;29;20139;-80
2023/04/15 01:13:00;;;;;;;6.93;5.35;;;;;;;6.79;100.00;100166.72;4956236;29;20082;-80
2023/04/15 01:15:27;;;;;;;7.30;4.80;;;;;;;6.75;100.00;100160.69;4955849;29;20043;-80
2023/04/15 01:17:54;;;;;;;10.27;5.40;;;;;;;6.74;100.00;100168.47;4956087;29;20116;-80
2023/04/15 01:20:21;;;;;;;6.65;5.25;;;;;;;6.69;100.00;100158.09;4939421;29;20066;-80
2023/04/15 01:22:48;;;;;;;7.50;5.07;;;;;;;6.68;100.00;100158.94;4955790;29;20050;-79
2023/04/15 01:25:20;;;;;;;9.98;5.88;;;;;;;6.70;100.00;100161.53;4955727;29;20031;-79
2023/04/15 01:27:48;;;;;;;8.95;5.45;;;;;;;6.69;100.00;100159.81;4940023;29;20051;-80
2023/04/15 01:30:15;;;;;;;9.30;6.15;;;;;;;6.68;100.00;100155.50;4955539;29;20150;-80
2023/04/15 01:32:41;;;;;;;9.70;6.20;;;;;;;6.68;100.00;100155.50;4939414;29;20102;-80
2023/04/15 01:35:08;;;;;;;8.30;5.32;;;;;;;6.73;100.00;100156.34;4955213;29;20035;-80
2023/04/15 01:37:35;;;;;;;11.30;7.22;;;;;;;6.74;100.00;100152.88;4955435;29;20055;-81
2023/04/15 01:40:02;;;;;;;7.97;5.13;;;;;;;6.80;100.00;100147.66;4955657;29;20039;-80
2023/04/15 01:42:28;;;;;;;7.05;6.35;;;;;;;6.84;100.00;100145.94;4955242;29;20042;-80
2023/04/15 01:44:55;;;;;;;8.15;5.45;;;;;;;6.85;100.00;100143.31;4971570;28;20067;-80
2023/04/15 01:47:22;;;;;;;8.00;5.78;;;;;;;6.87;100.00;100141.59;4971283;28;20049;-80
2023/04/15 01:49:50;;;;;;;10.68;6.25;;;;;;;6.88;100.00;100145.03;4956317;28;20386;-81
2023/04/15 01:52:17;;;;;;;9.07;6.35;;;;;;;6.89;100.00;100147.63;4971032;28;20490;-80
2023/04/15 01:54:44;;;;;;;9.88;5.97;;;;;;;6.91;100.00;100145.03;4971120;28;20039;-80
2023/04/15 01:57:10;;;;;;;8.35;5.95;;;;;;;6.90;100.00;100144.16;4955594;29;20043;-80
2023/04/15 01:59:37;;;;;;;12.85;6.50;;;;;;;6.91;100.00;100148.50;4971040;28;20036;-80
2023/04/15 02:02:04;;;;;;;8.15;5.53;;;;;;;6.95;100.00;100145.03;4939614;29;20043;-81
2023/04/15 02:04:30;;;;;;;9.07;6.28;;;;;;;6.91;100.00;100140.72;4955186;29;20035;-80
2023/04/15 02:06:57;;;;;;;7.75;6.05;;;;;;;6.93;100.00;100149.34;4970918;28;20367;-80
2023/04/15 02:09:23;;;;;;;8.43;5.60;;;;;;;6.96;100.00;100140.69;4971009;28;20035;-80
2023/04/15 02:11:52;;;;;;;8.18;5.90;;;;;;;6.99;100.00;100140.69;4954601;28;20389;-81
2023/04/15 02:14:19;;;;;;;11.30;6.53;;;;;;;6.99;100.00;100142.41;4954457;29;20035;-80
2023/04/15 02:16:45;;;;;;;9.50;6.65;;;;;;;6.97;100.00;100133.75;4954563;29;20039;-80
2023/04/15 02:19:12;;;;;;;9.93;6.85;;;;;;;6.96;100.00;100138.06;4970972;28;20035;-80
2023/04/15 02:21:39;;;;;;;10.90;7.32;;;;;;;6.95;100.00;100129.41;4954828;29;20134;-79
2023/04/15 02:24:06;;;;;;;9.60;7.30;;;;;;;6.95;100.00;100124.22;4955665;29;20043;-80
2023/04/15 02:26:32;;;;;;;15.10;8.15;;;;;;;6.95;100.00;100126.81;4954565;29;20090;-80
2023/04/15 02:29:00;;;;;;;12.27;8.23;;;;;;;6.95;100.00;100125.97;4954524;28;20397;-79
2023/04/15 02:31:26;;;;;;;8.73;7.25;;;;;;;6.97;100.00;100120.75;4954522;29;20054;-79
2023/04/15 02:33:52;;;;;;;14.02;7.85;;;;;;;6.98;100.00;100118.13;4955562;28;20075;-80
2023/04/15 02:36:20;;;;;;;10.65;7.35;;;;;;;6.97;100.00;100121.59;4938887;29;20046;-80
2023/04/15 02:38:46;;;;;;;11.57;7.45;;;;;;;6.96;100.00;100114.66;4954799;29;20098;-80
2023/04/15 02:41:13;;;;;;;10.10;7.32;;;;;;;6.98;100.00;100114.69;4954793;29;20094;-79
2023/04/15 02:43:40;;;;;;;11.52;7.65;;;;;;;6.98;100.00;100119.88;4954901;29;20062;-80
2023/04/15 02:46:07;;;;;;;11.48;7.55;;;;;;;7.01;100.00;100128.53;4954618;29;20035;-80
2023/04/15 02:48:33;;;;;;;11.02;7.40;;;;;;;7.02;100.00;100130.25;4954577;28;20054;-79
2023/04/15 02:51:18;;;;;;;10.23;7.70;;;;;;;7.00;100.00;100131.13;4939876;29;20043;-79
2023/04/15 02:53:46;;;;;;;10.23;7.13;;;;;;;6.99;100.00;100140.69;4955776;29;20042;-79
2023/04/15 02:56:14;;;;;;;10.57;7.50;;;;;;;7.02;100.00;100138.06;4955400;29;20090;-80
2023/04/15 02:58:41;;;;;;;11.00;8.48;;;;;;;7.02;100.00;100129.41;4959142;29;20078;-78
2023/04/15 03:01:08;;;;;;;11.48;7.78;;;;;;;7.02;100.00;100132.88;4956606;29;20451;-80
2023/04/15 03:03:35;;;;;;;16.02;10.25;;;;;;;6.98;100.00;100127.69;4954810;29;20050;-79
2023/04/15 03:06:01;;;;;;;12.68;7.63;;;;;;;6.99;100.00;100135.50;4954543;29;20050;-79
2023/04/15 03:08:28;;;;;;;10.15;8.13;;;;;;;7.00;100.00;100138.94;4970107;28;20043;-80
2023/04/15 03:10:54;;;;;;;10.40;7.78;;;;;;;7.01;100.00;100143.28;4954351;29;20457;-80
2023/04/15 03:13:21;;;;;;;12.20;8.68;;;;;;;7.01;100.00;100140.69;4954312;29;20039;-80
2023/04/15 03:15:47;;;;;;;12.00;9.05;;;;;;;7.00;100.00;100144.16;4970347;28;20039;-80
2023/04/15 03:18:14;;;;;;;13.20;9.25;;;;;;;6.95;100.00;100139.81;4954365;29;20078;-80
2023/04/15 03:20:40;;;;;;;13.40;9.05;;;;;;;6.92;100.00;100145.06;4955057;29;20051;-80
2023/04/15 03:23:07;;;;;;;12.65;9.35;;;;;;;6.91;100.00;100143.31;4937883;29;20043;-79
2023/04/15 03:25:34;;;;;;;17.10;9.00;;;;;;;6.90;100.00;100146.78;4956690;28;20039;-79
2023/04/15 03:28:00;;;;;;;13.20;9.18;;;;;;;6.90;100.00;100144.16;4957500;29;20549;-79
2023/04/15 03:30:27;;;;;;;10.27;8.50;;;;;;;6.88;100.00;100138.13;4958043;29;20049;-79
2023/04/15 03:32:54;;;;;;;17.88;10.05;;;;;;;6.86;100.00;100136.41;4957593;29;20482;-79
2023/04/15 03:35:20;;;;;;;18.63;11.48;;;;;;;6.87;100.00;100138.09;4957617;29;20043;-79
2023/04/15 03:37:48;;;;;;;16.50;11.40;;;;;;;6.87;100.00;100135.50;4958044;29;20055;-80
2023/04/15 03:40:14;;;;;;;16.65;10.77;;;;;;;6.85;100.00;100129.44;4942306;29;20047;-79
2023/04/15 03:42:41;;;;;;;18.17;12.18;;;;;;;6.89;100.00;100131.19;4957719;29;20477;-80
2023/04/15 03:45:08;;;;;;;15.90;10.38;;;;;;;6.87;100.00;100128.59;4941911;29;20098;-80
2023/04/15 03:47:34;;;;;;;15.07;10.45;;;;;;;6.88;100.00;100142.44;4974005;28;20051;-79
2023/04/15 03:50:00;;;;;;;14.60;10.75;;;;;;;6.87;100.00;100136.38;4957169;29;20453;-80
2023/04/15 03:52:27;;;;;;;15.18;9.85;;;;;;;6.86;100.00;100142.44;4957285;29;20471;-80
2023/04/15 03:54:53;;;;;;;19.50;11.82;;;;;;;6.82;100.00;100138.13;4957175;29;20035;-80
2023/04/15 03:57:22;;;;;;;16.55;11.55;;;;;;;6.80;100.00;100137.25;4942194;29;20039;-80
2023/04/15 03:59:49;;;;;;;14.27;10.40;;;;;;;6.77;100.00;100134.66;4958486;28;20126;-79
2023/04/15 04:02:16;;;;;;;19.13;12.02;;;;;;;6.73;100.00;100140.75;4957408;29;20046;-80
2023/04/15 04:04:42;;;;;;;19.33;12.35;;;;;;;6.71;100.00;100142.47;4958074;29;20051;-80
2023/04/15 04:07:09;;;;;;;19.85;12.57;;;;;;;6.70;100.00;100140.72;4959080;29;20043;-80
2023/04/15 04:09:38;;;;;;;17.30;12.35;;;;;;;6.65;100.00;100132.97;4980152;28;20070;-79
2023/04/15 04:12:13;;;;;;;16.38;11.77;;;;;;;6.60;100.00;100145.94;4961694;29;20062;-79
2023/04/15 04:14:39;;;;;;;17.55;12.50;;;;;;;6.59;100.00;100145.97;4960873;29;20047;-79
2023/04/15 04:17:06;;;;;;;19.33;12.45;;;;;;;6.55;100.00;100145.09;4963295;29;20094;-80
2023/04/15 04:19:32;;;;;;;17.52;12.43;;;;;;;6.51;100.00;100138.16;4948144;29;20039;-79
2023/04/15 04:21:59;;;;;;;17.73;12.77;;;;;;;6.46;100.00;100132.09;4963411;29;20051;-79
2023/04/15 04:24:25;;;;;;;20.58;13.57;;;;;;;6.42;100.00;100139.03;4960765;29;20152;-79
2023/04/15 04:26:52;;;;;;;23.00;13.27;;;;;;;6.41;100.00;100150.31;4958071;29;20035;-80
2023/04/15 04:29:18;;;;;;;19.67;12.48;;;;;;;6.37;100.00;100139.91;4974326;28;20070;-79
2023/04/15 04:31:47;;;;;;;23.30;13.75;;;;;;;6.33;100.00;100145.97;4957834;29;20047;-80
2023/04/15 04:34:14;;;;;;;20.08;12.80;;;;;;;6.31;100.00;100142.50;4957701;29;20172;-80
2023/04/15 04:36:40;;;;;;;18.40;12.73;;;;;;;6.29;100.00;100143.34;4959033;28;20074;-80
2023/04/15 04:39:06;;;;;;;23.00;14.98;;;;;;;6.28;100.00;100140.75;4959449;29;20043;-79
2023/04/15 04:41:33;;;;;;;23.08;13.63;;;;;;;6.27;100.00;100141.63;4959944;29;20416;-79
2023/04/15 04:43:59;;;;;;;20.42;13.75;;;;;;;6.25;100.00;100148.56;4959987;29;20048;-80
2023/04/15 04:46:26;;;;;;;20.27;13.00;;;;;;;6.22;100.00;100152.03;4960520;29;20039;-79
2023/04/15 04:48:53;;;;;;;22.55;14.27;;;;;;;6.22;100.00;100145.94;4942137;29;20390;-80
2023/04/15 04:51:19;;;;;;;19.83;13.20;;;;;;;6.21;100.00;100142.50;4957419;29;20047;-80
2023/04/15 04:53:46;;;;;;;22.30;14.45;;;;;;;6.21;100.00;100139.03;4974587;28;20049;-79
2023/04/15 04:56:12;;;;;;;19.35;13.15;;;;;;;6.21;100.00;100139.88;4947988;29;20043;-78
2023/04/15 04:58:39;;;;;;;23.35;15.40;;;;;;;6.21;100.00;100141.63;4969037;28;20050;-79
2023/04/15 05:01:05;;;;;;;23.42;14.25;;;;;;;6.20;100.00;100138.16;4969141;28;20066;-79
2023/04/15 05:03:32;;;;;;;21.85;13.60;;;;;;;6.19;100.00;100132.97;4983754;28;20050;-78
2023/04/15 05:05:58;;;;;;;22.95;14.20;;;;;;;6.20;100.00;100148.53;4967579;29;20039;-79
2023/04/15 05:08:25;;;;;;;23.35;14.15;;;;;;;6.21;100.00;100152.03;4962979;29;20410;-80
2023/04/15 05:10:51;;;;;;;19.15;11.70;;;;;;;6.24;100.00;100147.69;4963752;29;20058;-80
2023/04/15 05:13:18;;;;;;;21.70;14.35;;;;;;;6.25;100.00;100148.56;4958524;29;20046;-80
2023/04/15 05:15:44;;;;;;;26.70;14.38;;;;;;;6.28;100.00;100151.16;4961475;29;20090;-79
2023/04/15 05:18:11;;;;;;;20.98;13.57;;;;;;;6.30;100.00;100152.03;4952068;29;20043;-80
2023/04/15 05:20:37;;;;;;;25.08;14.50;;;;;;;6.28;100.00;100149.44;4960659;29;20051;-79
2023/04/15 05:23:04;;;;;;;19.63;12.27;;;;;;;6.26;100.00;100151.16;4957935;29;20035;-81
2023/04/15 05:25:31;;;;;;;24.75;14.93;;;;;;;6.24;100.00;100152.88;4977266;28;20038;-79
2023/04/15 05:27:58;;;;;;;22.73;13.02;;;;;;;6.22;100.00;100154.63;4967414;28;20054;-80
2023/04/15 05:30:24;;;;;;;21.90;14.07;;;;;;;6.23;100.00;100150.28;4967774;29;20039;-80
2023/04/15 05:32:51;;;;;;;20.60;12.93;;;;;;;6.21;100.00;100152.03;4964882;29;20098;-80
2023/04/15 05:35:17;;;;;;;20.83;13.70;;;;;;;6.19;100.00;100153.75;4957456;29;20368;-80
2023/04/15 05:37:46;;;;;;;22.15;14.43;;;;;;;6.19;100.00;100157.22;4957114;29;20042;-80
2023/04/15 05:40:13;;;;;;;21.38;13.30;;;;;;;6.20;100.00;100155.50;4958504;29;20476;-80
2023/04/15 05:42:40;;;;;;;21.75;13.95;;;;;;;6.19;100.00;100146.84;4941694;29;20051;-81
2023/04/15 05:45:08;;;;;;;22.00;14.18;;;;;;;6.20;100.00;100142.50;4941305;29;20442;-80
2023/04/15 05:47:36;;;;;;;20.38;13.55;;;;;;;6.20;100.00;100155.50;4956257;28;20063;-80
2023/04/15 05:50:04;;;;;;;21.23;12.45;;;;;;;6.20;100.00;100148.53;4957021;29;20150;-80
2023/04/15 05:52:31;;;;;;;21.70;13.63;;;;;;;6.21;100.00;100152.88;4973303;28;20142;-80
2023/04/15 05:54:58;;;;;;;21.95;13.65;;;;;;;6.18;100.00;100147.69;4957373;29;20070;-80
2023/04/15 05:57:25;;;;;;;18.35;12.77;;;;;;;6.20;100.00;100150.28;4957587;29;20039;-80
2023/04/15 05:59:52;;;;;;;18.15;12.35;;;;;;;6.20;100.00;100151.16;4957748;29;20035;-80
2023/04/15 06:02:18;;;;;;;18.73;12.13;;;;;;;6.21;100.00;100142.50;4956602;29;20074;-81
2023/04/15 06:04:45;;;;;;;18.83;10.63;;;;;;;6.19;100.00;100144.25;4973808;28;20094;-80
2023/04/15 06:07:11;;;;;;;17.75;10.50;;;;;;;6.22;100.00;100149.44;4956686;29;20039;-80
2023/04/15 06:09:38;;;;;;;17.58;10.23;;;;;;;6.24;100.00;100145.06;4972705;28;20040;-80
2023/04/15 06:12:05;;;;;;;16.13;10.23;;;;;;;6.26;100.00;100139.91;4956906;29;20455;-80
2023/04/15 06:14:34;;;;;;;15.70;10.77;;;;;;;6.29;100.00;100147.69;4972471;28;20059;-80
2023/04/15 06:17:00;;;;;;;17.45;10.57;;;;;;;6.29;100.00;100139.91;4956294;29;20043;-80
2023/04/15 06:19:27;;;;;;;18.55;11.63;;;;;;;6.28;100.00;100148.56;4956026;29;20058;-80
2023/04/15 06:21:53;;;;;;;15.68;10.27;;;;;;;6.29;100.00;100138.16;4940365;29;20055;-81
2023/04/15 06:24:20;;;;;;;13.50;9.88;;;;;;;6.31;100.00;100143.38;4955672;29;20043;-80
2023/04/15 06:26:46;;;;;;;14.15;9.45;;;;;;;6.29;100.00;100140.75;4955149;29;20046;-80
2023/04/15 06:29:13;;;;;;;12.73;9.30;;;;;;;6.29;100.00;100137.28;4956167;29;20043;-80
2023/04/15 06:31:40;;;;;;;15.27;9.60;;;;;;;6.27;100.00;100142.50;4956965;28;20198;-81
2023/04/15 06:34:06;;;;;;;13.05;8.77;;;;;;;6.29;100.00;100147.69;4955319;29;20109;-80
2023/04/15 06:36:33;;;;;;;13.60;9.23;;;;;;;6.28;100.00;100136.44;4956363;28;20046;-80
2023/04/15 06:39:01;;;;;;;14.77;9.20;;;;;;;6.31;100.00;100147.69;4955619;29;20419;-81
2023/04/15 06:41:28;;;;;;;11.68;8.73;;;;;;;6.36;100.00;100148.56;4955769;29;20040;-80
2023/04/15 06:43:54;;;;;;;10.50;7.75;;;;;;;6.36;100.00;100145.97;4956772;29;20050;-81
2023/04/15 06:46:21;;;;;;;14.20;8.88;;;;;;;6.37;100.00;100145.09;4954839;29;20042;-81
2023/04/15 06:48:47;;;;;;;10.73;8.20;;;;;;;6.38;100.00;100145.09;4955187;29;20047;-81
2023/04/15 06:51:14;;;;;;;10.38;7.55;;;;;;;6.35;100.00;100147.69;4939192;29;20126;-80
2023/04/15 06:53:42;;;;;;;12.75;8.05;;;;;;;6.31;100.00;100142.50;4954844;29;20047;-80
2023/04/15 06:56:12;;;;;;;10.27;6.95;;;;;;;6.32;100.00;100141.63;4955009;29;20063;-80
2023/04/15 06:58:38;;;;;;;10.55;6.75;;;;;;;6.32;100.00;100145.09;4954668;28;20047;-80
2023/04/15 07:01:05;;;;;;;10.63;7.53;;;;;;;6.36;100.00;100156.34;4954931;29;20426;-80
2023/04/15 07:03:32;;;;;;;11.23;6.88;;;;;;;6.35;100.00;100146.81;4955065;29;20134;-80
2023/04/15 07:05:58;;;;;;;7.95;6.50;;;;;;;6.35;100.00;100149.41;4954493;29;20039;-80
2023/04/15 07:08:25;;;;;;;8.23;6.60;;;;;;;6.36;100.00;100144.25;4956755;29;20051;-80
2023/04/15 07:10:52;;;;;;;8.80;6.15;;;;;;;6.37;100.00;100142.50;4956133;29;20047;-81
2023/04/15 07:13:19;;;;;;;8.82;6.10;;;;;;;6.40;100.00;100139.88;4955057;29;20043;-80
2023/04/15 07:15:46;;;;;;;7.68;5.55;;;;;;;6.43;100.00;100145.09;4956729;29;20122;-81
2023/04/15 07:18:12;;;;;;;6.78;5.20;;;;;;;6.46;100.00;100147.69;4955980;29;20054;-81
2023/04/15 07:20:40;;;;;;;6.97;4.85;;;;;;;6.49;100.00;100150.28;4955974;29;20501;-80
2023/04/15 07:23:06;;;;;;;7.97;5.75;;;;;;;6.53;100.00;100165.03;4955420;29;20458;-80
2023/04/15 07:25:33;;;;;;;7.82;5.15;;;;;;;6.57;100.00;100158.97;4938567;29;20497;-81
2023/04/15 07:27:59;;;;;;;5.55;4.47;;;;;;;6.57;100.00;100173.69;4954829;29;20039;-81
2023/04/15 07:30:26;;;;;;;6.47;4.25;;;;;;;6.56;100.00;100171.97;4954929;29;20043;-82
2023/04/15 07:32:52;;;;;;;8.85;5.72;;;;;;;6.54;100.00;100181.50;4954196;29;20103;-80
2023/04/15 07:35:25;;;;;;;7.13;4.93;;;;;;;6.57;100.00;100178.88;4955536;29;20047;-80
2023/04/15 07:37:52;;;;;;;6.90;4.88;;;;;;;6.61;100.00;100181.50;4955102;29;20072;-80
2023/04/15 07:40:18;;;;;;;6.82;5.53;;;;;;;6.63;100.00;100173.69;4955446;29;20047;-80
2023/04/15 07:42:45;;;;;;;9.15;5.53;;;;;;;6.63;100.00;100168.50;4960440;29;20039;-80
2023/04/15 07:45:12;;;;;;;6.95;5.95;;;;;;;6.61;100.00;100180.66;4963336;29;20047;-80
2023/04/15 07:47:39;;;;;;;7.90;6.18;;;;;;;6.62;100.00;100172.84;4954849;29;20049;-80
2023/04/15 07:50:07;;;;;;;7.30;5.47;;;;;;;6.65;100.00;100181.50;4938420;29;20047;-80
2023/04/15 07:52:38;;;;;;;8.93;4.97;;;;;;;6.68;100.00;100186.72;4954461;29;20481;-80
2023/04/15 07:55:07;;;;;;;8.90;6.45;;;;;;;6.72;100.00;100180.63;4956327;29;20042;-80
2023/04/15 07:57:34;;;;;;;6.93;5.43;;;;;;;6.77;100.00;100176.28;4954561;29;20046;-79
2023/04/15 08:00:01;;;;;;;6.28;4.07;;;;;;;6.82;100.00;100189.28;4954263;29;20043;-80
2023/04/15 08:02:28;;;;;;;4.85;4.28;;;;;;;6.85;100.00;100184.09;4954913;29;20047;-79
2023/04/15 08:04:54;;;;;;;5.95;4.85;;;;;;;6.86;100.00;100198.84;4954117;28;20411;-79
2023/04/15 08:07:21;;;;;;;5.07;4.57;;;;;;;6.86;100.00;100198.84;4937450;29;20081;-80
2023/04/15 08:09:47;;;;;;;4.30;3.90;;;;;;;6.86;100.00;100204.91;4954941;28;20043;-80
2023/04/15 08:12:14;;;;;;;6.20;4.93;;;;;;;6.86;100.00;100204.91;4957809;29;20055;-80
2023/04/15 08:14:45;;;;;;;7.78;4.25;;;;;;;6.89;100.00;100204.03;4958979;29;20145;-88
2023/04/15 08:17:11;;;;;;;4.15;3.60;;;;;;;6.86;100.00;100207.50;4957934;28;20051;-80
2023/04/15 08:19:38;;;;;;;3.65;3.30;;;;;;;6.88;100.00;100210.97;4973369;28;20374;-80
2023/04/15 08:22:04;;;;;;;3.33;3.03;;;;;;;6.88;100.00;100216.19;4957991;29;20110;-79
2023/04/15 08:24:33;;;;;;;4.85;3.80;;;;;;;6.85;100.00;100210.97;4958911;29;20047;-80
2023/04/15 08:27:03;;;;;;;4.25;3.85;;;;;;;6.83;100.00;100199.72;4941803;29;20053;-79
2023/04/15 08:29:29;;;;;;;4.68;3.00;;;;;;;6.86;100.00;100202.28;4957875;29;20043;-79
2023/04/15 08:31:56;;;;;;;4.28;3.53;;;;;;;6.88;100.00;100203.16;4957579;29;20039;-80
2023/04/15 08:34:23;;;;;;;3.58;3.20;;;;;;;6.93;100.00;100204.00;4940680;29;20051;-78
2023/04/15 08:36:50;;;;;;;5.10;3.22;;;;;;;6.96;100.00;100203.13;4957542;29;20103;-80
2023/04/15 08:39:16;;;;;;;5.65;3.20;;;;;;;6.97;100.00;100202.28;4957908;29;20042;-80
2023/04/15 08:41:47;;;;;;;3.63;3.08;;;;;;;6.96;100.00;100210.94;4957714;29;20042;-79
2023/04/15 08:44:15;;;;;;;3.60;3.22;;;;;;;6.95;100.00;100220.50;4957242;29;20043;-80
2023/04/15 08:46:43;;;;;;;3.28;2.97;;;;;;;6.93;100.00;100216.16;4956986;29;20043;-80
2023/04/15 08:49:12;;;;;;;4.78;3.20;;;;;;;6.93;100.00;100209.22;4941031;29;20067;-79
2023/04/15 08:51:42;;;;;;;3.45;2.70;;;;;;;6.92;100.00;100215.31;4956514;29;20371;-79
2023/04/15 08:54:09;;;;;;;2.70;2.50;;;;;;;6.94;100.00;100220.50;4956524;29;20517;-79
2023/04/15 08:56:36;;;;;;;4.95;3.60;;;;;;;6.94;100.00;100213.56;4956120;29;20067;-80
2023/04/15 08:59:04;;;;;;;2.80;2.60;;;;;;;6.94;100.00;100213.56;4956582;29;20095;-80
2023/04/15 09:01:32;;;;;;;4.10;2.85;;;;;;;6.96;100.00;100221.34;4956453;29;20485;-79
2023/04/15 09:03:59;;;;;;;3.50;3.20;;;;;;;6.99;100.00;100212.66;4956594;29;20043;-80
2023/04/15 09:06:26;;;;;;;2.65;2.40;;;;;;;7.03;100.00;100223.09;4956303;29;20039;-80
2023/04/15 09:08:52;;;;;;;2.70;2.50;;;;;;;7.04;100.00;100214.41;4956069;29;20039;-80
2023/04/15 09:11:21;;;;;;;4.22;2.95;;;;;;;7.07;100.00;100198.78;4940389;29;20054;-80
2023/04/15 09:13:49;;;;;;;12.55;6.38;;;;;;;7.12;100.00;100204.00;4955881;29;20050;-80
2023/04/15 09:16:16;;;;;;;5.35;4.40;;;;;;;7.14;100.00;100209.19;4956319;29;20134;-80
2023/04/15 09:18:43;;;;;;;3.63;3.28;;;;;;;7.20;100.00;100219.59;4956122;29;20043;-81
2023/04/15 09:21:13;;;;;;;3.22;2.92;;;;;;;7.23;100.00;100222.19;5058166;23;20494;-80
2023/04/15 09:23:58;;;;;;;5.90;3.42;;;;;;;7.28;100.00;100216.09;4955387;29;20050;-80
2023/04/15 09:26:36;;;;;;;5.32;3.97;;;;;;;7.36;100.00;100223.03;4956107;29;20035;-80
2023/04/15 09:29:08;;;;;;;3.72;3.42;;;;;;;7.43;100.00;100227.34;4956185;29;20067;-80
2023/04/15 09:31:35;;;;;;;4.38;3.67;;;;;;;7.51;100.00;100238.63;4956024;29;20493;-82
2023/04/15 09:34:02;;;;;;;5.68;4.65;;;;;;;7.54;100.00;100232.53;4955454;29;20061;-82
2023/04/15 09:36:29;;;;;;;6.00;4.82;;;;;;;7.55;100.00;100240.34;4923971;29;20043;-82
2023/04/15 09:38:58;;;;;;;4.22;3.20;;;;;;;7.58;100.00;100244.66;4955632;29;20047;-80
2023/04/15 09:41:27;;;;;;;4.97;3.72;;;;;;;7.61;100.00;100248.13;4956027;29;20050;-80
2023/04/15 09:43:54;;;;;;;6.38;4.15;;;;;;;7.64;100.00;100248.97;4955396;29;20091;-79
2023/04/15 09:46:20;;;;;;;6.32;4.85;;;;;;;7.62;100.00;100244.63;4956778;29;20050;-81
2023/04/15 09:48:47;;;;;;;5.22;4.53;;;;;;;7.58;100.00;100252.47;4955208;29;20039;-80
2023/04/15 09:51:15;;;;;;;4.65;3.70;;;;;;;7.57;100.00;100258.56;4955155;29;20047;-79
2023/04/15 09:53:42;;;;;;;4.88;4.20;;;;;;;7.63;100.00;100255.94;4955665;29;20117;-80
2023/04/15 09:56:09;;;;;;;6.50;5.10;;;;;;;7.71;100.00;100255.91;4939901;29;20474;-80
2023/04/15 09:58:37;;;;;;;6.38;4.75;;;;;;;7.70;100.00;100255.03;4956613;29;20039;-80
2023/04/15 10:01:06;;;;;;;7.05;4.80;;;;;;;7.70;100.00;100259.38;4955550;29;20065;-78
2023/04/15 10:03:36;;;;;;;7.35;5.10;;;;;;;7.72;100.00;100261.13;4939915;29;20405;-80
2023/04/15 10:06:04;;;;;;;8.63;6.53;;;;;;;7.73;100.00;100256.75;4956260;29;20049;-82
2023/04/15 10:08:33;;;;;;;5.43;4.93;;;;;;;7.75;100.00;100268.91;4957346;28;20118;-79
2023/04/15 10:11:03;;;;;;;8.68;6.53;;;;;;;7.76;100.00;100261.97;4956542;29;20058;-80
2023/04/15 10:13:34;;;;;;;8.32;6.13;;;;;;;7.76;100.00;100254.16;4955665;29;20039;-79
2023/04/15 10:16:11;;;;;;;7.32;5.80;;;;;;;7.78;100.00;100265.44;4955701;29;20130;-79
2023/04/15 10:18:45;;;;;;;6.13;5.10;;;;;;;7.80;100.00;100268.91;4940179;29;20069;-79
2023/04/15 10:21:12;;;;;;;;;;;;;;;7.85;100.00;100261.94;4955903;28;20102;-81
2023/04/15 10:23:40;;;;;;;7.85;5.53;;;;;;;7.85;100.00;100261.94;4955160;29;19922;-80
2023/04/15 10:26:07;;;;;;;9.05;6.03;;;;;;;7.88;100.00;100268.88;4957938;29;20031;-79
2023/04/15 10:28:35;;;;;;;10.30;6.40;;;;;;;7.92;100.00;100267.97;4955259;29;20102;-79
2023/04/15 10:31:01;;;;;;;11.23;7.43;;;;;;;7.93;100.00;100270.56;4956123;28;20043;-80
2023/04/15 10:33:29;;;;;;;11.55;7.07;;;;;;;7.97;100.00;100275.78;4954718;28;20053;-80
2023/04/15 10:35:56;;;;;;;11.30;7.72;;;;;;;7.99;100.00;100268.81;4955961;28;20043;-80
2023/04/15 10:38:44;;;;;;;13.07;8.63;;;;;;;7.99;100.00;100274.91;4954392;29;20031;-80
2023/04/15 10:41:29;;;;;;;12.63;8.43;;;;;;;8.04;100.00;100267.91;4954382;29;20050;-81
2023/04/15 10:44:01;;;;;;;14.98;9.02;;;;;;;8.07;100.00;100269.63;4954953;29;20043;-81
2023/04/15 10:46:42;;;;;;;13.60;8.25;;;;;;;8.09;100.00;100266.16;4954509;29;20043;-81
2023/04/15 10:49:15;;;;;;;15.20;9.23;;;;;;;8.11;100.00;100266.16;4954519;29;20074;-79
2023/04/15 10:51:52;;;;;;;20.20;11.45;;;;;;;8.18;100.00;100267.00;4955189;29;20042;-80
2023/04/15 10:54:25;;;;;;;16.85;10.57;;;;;;;8.25;100.00;100269.56;4938502;29;20043;-80
2023/04/15 10:57:08;;;;;;;16.20;9.85;;;;;;;8.30;100.00;100271.28;4956001;29;20214;-80
2023/04/15 10:59:58;;;;;;;21.80;12.65;;;;;;;8.37;100.00;100275.56;4954715;29;20049;-80
2023/04/15 11:02:48;;;;;;;17.05;10.25;;;;;;;8.46;100.00;100274.69;4955895;28;20039;-80
2023/04/15 11:05:17;;;;;;;18.20;11.23;;;;;;;8.54;100.00;100272.88;4954458;29;20462;-81
2023/04/15 11:07:54;;;;;;;20.15;11.88;;;;;;;8.61;100.00;100274.59;4938745;29;20497;-81
2023/04/15 11:10:20;;;;;;;17.52;11.75;;;;;;;8.70;100.00;100269.31;4954984;29;20066;-80
2023/04/15 11:12:51;;;;;;;22.42;12.43;;;;;;;8.76;100.00;100268.38;4955750;29;20118;-80
2023/04/15 11:15:40;;;;;;;22.17;12.60;;;;;;;8.83;100.00;100282.28;4957078;29;20043;-81
2023/04/15 11:18:21;;;;;;;19.52;12.10;;;;;;;8.86;100.00;100279.63;4973674;28;20076;-80
2023/04/15 11:20:56;;;;;;;19.73;11.73;;;;;;;8.87;100.00;100284.81;4968169;28;20058;-80
2023/04/15 11:23:43;;;;;;;19.92;12.50;;;;;;;8.90;100.00;100281.31;4975462;28;20038;-80